This is the latest recevied weather packets stored in our database for station/object KE0FIN. If no packets are shown the sender has not sent any weather packets the latest 1 day(s).
| Time | Temp. | Humidity | Pressure | Rain* | Wind** | Luminosity | Snow |
|---|---|---|---|---|---|---|---|
| 1778012354 | 10.56° C | 77% | 1063.9 hPa | 0 mm | 0.45 m/s, 112° | 118 W/m² | - |
| 1778012051 | 10.56° C | 77% | 1063.8 hPa | 0 mm | 0.89 m/s, 113° | 118 W/m² | - |
| 1778011750 | 10° C | 78% | 1063.8 hPa | 0 mm | 0 m/s | 98 W/m² | - |
| 1778011446 | 10.56° C | 77% | 1063.6 hPa | 0 mm | 0.89 m/s, 119° | 107 W/m² | - |
| 1778011142 | 10.56° C | 78% | 1063.6 hPa | 0 mm | 0 m/s | 162 W/m² | - |
| 1778010839 | 10° C | 78% | 1063.9 hPa | 0 mm | 0.45 m/s, 124° | 129 W/m² | - |
| 1778010536 | 10° C | 78% | 1063.9 hPa | 0 mm | 0.45 m/s, 149° | 102 W/m² | - |
| 1778010235 | 10° C | 77% | 1063.8 hPa | 0 mm | 0 m/s | 87 W/m² | - |
| 1778009934 | 10° C | 75% | 1064 hPa | 0 mm | 0.89 m/s, 113° | 93 W/m² | - |
| 1778009632 | 10° C | 74% | 1063.9 hPa | 0 mm | 0.89 m/s, 121° | 82 W/m² | - |
| 1778009329 | 10° C | 73% | 1063.6 hPa | 0 mm | 1.79 m/s, 61° | 83 W/m² | - |
| 1778009028 | 10.56° C | 73% | 1063.7 hPa | 0 mm | 0.89 m/s, 118° | 105 W/m² | - |
| 1778008725 | 10.56° C | 73% | 1063.8 hPa | 0 mm | 0.89 m/s, 117° | 132 W/m² | - |
| 1778008424 | 10.56° C | 75% | 1063.9 hPa | 0 mm | 0.89 m/s, 115° | 164 W/m² | - |
| 1778008120 | 10.56° C | 76% | 1063.8 hPa | 0 mm | 0.89 m/s, 68° | 122 W/m² | - |
| 1778007815 | 10.56° C | 78% | 1063.6 hPa | 0 mm | 0.45 m/s, 145° | 106 W/m² | - |
| 1778007511 | 10.56° C | 78% | 1063.5 hPa | 0 mm | 0 m/s | 64 W/m² | - |
| 1778007208 | 10.56° C | 77% | 1063.4 hPa | 0 mm | 0.45 m/s, 93° | 79 W/m² | - |
| 1778006904 | 10.56° C | 76% | 1063.4 hPa | 0 mm | 0.45 m/s, 167° | 68 W/m² | - |
| 1778006601 | 10.56° C | 75% | 1063.7 hPa | 0 mm | 0 m/s | 81 W/m² | - |
| 1778006298 | 11.11° C | 74% | 1063.7 hPa | 0 mm | 0.45 m/s, 159° | 125 W/m² | - |
| 1778005995 | 11.11° C | 75% | 1063.4 hPa | 0 mm | 0 m/s | 234 W/m² | - |
| 1778005692 | 11.11° C | 74% | 1063.7 hPa | 0 mm | 0.89 m/s, 130° | 196 W/m² | - |
| 1778005388 | 11.11° C | 74% | 1063.6 hPa | 0 mm | 0.45 m/s, 111° | 243 W/m² | - |
| 1778005085 | 10.56° C | 75% | 1063.8 hPa | 0 mm | 0 m/s | 221 W/m² | - |
* Rain latest hour (hover to see other rain measurements)
** Current wind speed in m/s (hover to see current wind gust speed)